Time;durP1;ratioP1;P1;durP2;ratioP2;P2;SDS_P1;SDS_P2;PMS_P1;PMS_P2;Temp;Humidity;BMP_temperature;BMP_pressure;BME280_temperature;BME280_humidity;BME280_pressure;Samples;Min_cycle;Max_cycle;Signal;HPM_P1;HPM_P2
2022/07/23 00:00:55;;;;;;;3.30;1.52;;;17.70;73.70;;;;;;5076137;28;20028;-83
2022/07/23 00:03:20;;;;;;;2.47;1.33;;;17.60;73.80;;;;;;5076020;28;20103;-83
2022/07/23 00:05:46;;;;;;;3.00;1.83;;;17.60;73.80;;;;;;5076398;28;20028;-83
2022/07/23 00:08:12;;;;;;;3.67;1.60;;;17.60;74.00;;;;;;5094652;28;20476;-83
2022/07/23 00:10:38;;;;;;;2.50;1.58;;;17.50;74.00;;;;;;5077081;28;20051;-83
2022/07/23 00:13:04;;;;;;;1.75;1.40;;;17.50;74.10;;;;;;5076807;28;20039;-83
2022/07/23 00:15:29;;;;;;;2.53;1.63;;;17.40;74.30;;;;;;5094999;28;20391;-83
2022/07/23 00:17:55;;;;;;;2.65;1.75;;;17.40;74.40;;;;;;5094828;28;20035;-82
2022/07/23 00:20:20;;;;;;;2.85;1.80;;;17.40;74.50;;;;;;5095005;28;20027;-82
2022/07/23 00:22:48;;;;;;;2.67;1.77;;;17.30;74.50;;;;;;5091715;28;20040;-83
2022/07/23 00:25:14;;;;;;;3.30;1.67;;;17.30;74.70;;;;;;5078386;28;20491;-84
2022/07/23 00:27:39;;;;;;;2.60;1.55;;;17.20;74.70;;;;;;5097652;28;20115;-82
2022/07/23 00:30:06;;;;;;;2.45;1.90;;;17.20;74.90;;;;;;5080788;28;20070;-82
2022/07/23 00:32:44;;;;;;;3.33;1.77;;;17.20;75.00;;;;;;5097339;28;20081;-83
2022/07/23 00:35:09;;;;;;;3.83;1.70;;;17.20;75.70;;;;;;5098525;28;20053;-83
2022/07/23 00:37:35;;;;;;;2.10;1.85;;;17.10;75.10;;;;;;5080925;28;20035;-83
2022/07/23 00:40:01;;;;;;;2.58;1.83;;;17.10;75.30;;;;;;5080148;28;20046;-83
2022/07/23 00:42:26;;;;;;;2.35;1.50;;;17.10;75.40;;;;;;5080259;28;20038;-83
2022/07/23 00:44:52;;;;;;;2.58;1.52;;;17.00;75.50;;;;;;5079397;28;20403;-81
2022/07/23 00:47:17;;;;;;;2.10;1.75;;;17.00;75.60;;;;;;5098357;28;20043;-82
2022/07/23 00:49:43;;;;;;;1.85;1.70;;;17.00;75.70;;;;;;5098991;28;20028;-82
2022/07/23 00:52:09;;;;;;;1.90;1.80;;;16.90;75.90;;;;;;5079997;28;20501;-82
2022/07/23 00:54:35;;;;;;;5.25;1.75;;;16.80;76.00;;;;;;5076710;28;20062;-83
2022/07/23 00:57:01;;;;;;;3.03;1.58;;;16.80;76.20;;;;;;5077388;28;20032;-84
2022/07/23 00:59:27;;;;;;;2.72;1.85;;;16.70;76.30;;;;;;5079824;28;20479;-83
2022/07/23 01:01:52;;;;;;;3.78;1.88;;;16.70;76.40;;;;;;5080338;28;20028;-84
2022/07/23 01:04:18;;;;;;;2.78;1.73;;;16.60;76.50;;;;;;5095254;28;20031;-84
2022/07/23 01:06:45;;;;;;;3.25;2.10;;;16.60;76.60;;;;;;5080632;28;20060;-84
2022/07/23 01:09:10;;;;;;;2.55;1.67;;;16.60;76.80;;;;;;5080880;28;20032;-84
2022/07/23 01:11:40;;;;;;;2.50;1.80;;;16.60;76.90;;;;;;5080891;28;20506;-82
2022/07/23 01:14:11;;;;;;;3.10;2.00;;;16.50;77.00;;;;;;5098737;28;20039;-83
2022/07/23 01:16:36;;;;;;;2.97;1.80;;;16.50;77.00;;;;;;5080585;28;20038;-83
2022/07/23 01:19:06;;;;;;;4.93;2.10;;;16.50;77.10;;;;;;5080644;28;20032;-84
2022/07/23 01:21:37;;;;;;;2.10;1.90;;;16.40;77.20;;;;;;5099192;28;20103;-83
2022/07/23 01:24:05;;;;;;;4.85;3.20;;;16.40;77.30;;;;;;5093619;28;20041;-83
2022/07/23 01:26:31;;;;;;;2.90;2.38;;;16.40;77.40;;;;;;5093355;28;20559;-84
2022/07/23 01:28:57;;;;;;;2.55;2.10;;;16.30;77.50;;;;;;5076320;28;20048;-83
2022/07/23 01:31:22;;;;;;;2.45;1.83;;;16.30;77.60;;;;;;5076667;28;20032;-84
2022/07/23 01:33:48;;;;;;;3.53;1.92;;;16.30;77.70;;;;;;5075905;28;20033;-83
2022/07/23 01:36:14;;;;;;;3.28;2.10;;;16.20;77.80;;;;;;5074777;28;20028;-82
2022/07/23 01:38:40;;;;;;;2.50;1.90;;;16.20;77.90;;;;;;5075261;28;20136;-82
2022/07/23 01:41:05;;;;;;;2.75;2.25;;;16.20;78.00;;;;;;5075704;28;20024;-83
2022/07/23 01:43:32;;;;;;;3.60;2.10;;;16.20;78.00;;;;;;5076905;28;20039;-82
2022/07/23 01:45:58;;;;;;;2.95;2.20;;;16.20;78.10;;;;;;5076976;28;20031;-82
2022/07/23 01:48:23;;;;;;;2.72;1.88;;;16.10;78.10;;;;;;5076143;28;20383;-83
2022/07/23 01:50:50;;;;;;;3.58;2.08;;;16.10;78.10;;;;;;5075957;28;20111;-83
2022/07/23 01:53:15;;;;;;;2.40;2.00;;;16.10;78.20;;;;;;5092089;28;20032;-82
2022/07/23 01:55:42;;;;;;;2.17;1.95;;;16.10;78.20;;;;;;5075465;28;20373;-83
2022/07/23 01:58:07;;;;;;;2.80;2.00;;;16.10;78.20;;;;;;5091580;28;20035;-83
2022/07/23 02:00:34;;;;;;;1.83;1.70;;;16.10;78.20;;;;;;5075007;28;20020;-83
2022/07/23 02:02:59;;;;;;;3.13;2.20;;;16.10;78.20;;;;;;5075039;28;20094;-83
2022/07/23 02:05:25;;;;;;;4.78;2.10;;;16.10;78.20;;;;;;5075485;28;20036;-83
2022/07/23 02:07:52;;;;;;;2.38;1.90;;;16.10;78.20;;;;;;5075109;28;20051;-83
2022/07/23 02:10:17;;;;;;;2.92;1.80;;;16.10;78.20;;;;;;5074929;28;20050;-82
2022/07/23 02:12:43;;;;;;;3.53;1.92;;;16.10;78.20;;;;;;5076033;28;20372;-82
2022/07/23 02:15:09;;;;;;;2.60;1.75;;;16.10;78.20;;;;;;5074369;28;20395;-83
2022/07/23 02:17:35;;;;;;;3.35;1.60;;;16.10;78.20;;;;;;5075194;28;20108;-83
2022/07/23 02:20:00;;;;;;;9.82;2.30;;;16.10;78.20;;;;;;5074105;28;20024;-83
2022/07/23 02:22:26;;;;;;;2.20;1.80;;;16.10;78.20;;;;;;5074711;28;20032;-82
2022/07/23 02:24:51;;;;;;;2.83;1.77;;;16.00;78.20;;;;;;5078044;28;20031;-83
2022/07/23 02:27:17;;;;;;;2.35;1.70;;;16.00;78.20;;;;;;5077716;28;20075;-83
2022/07/23 02:29:42;;;;;;;3.30;1.80;;;16.10;78.30;;;;;;5077939;28;20119;-83
2022/07/23 02:32:08;;;;;;;2.08;1.60;;;16.00;78.20;;;;;;5096699;28;20024;-83
2022/07/23 02:34:34;;;;;;;3.58;1.77;;;16.10;78.20;;;;;;5096355;28;20031;-83
2022/07/23 02:36:59;;;;;;;2.45;1.88;;;16.10;78.20;;;;;;5077321;28;20078;-83
2022/07/23 02:39:25;;;;;;;2.00;1.80;;;16.00;78.10;;;;;;5078077;28;20387;-83
2022/07/23 02:41:50;;;;;;;3.13;1.83;;;16.10;78.20;;;;;;5077595;28;20116;-83
2022/07/23 02:44:16;;;;;;;1.60;1.50;;;16.10;78.20;;;;;;5077811;28;20016;-82
2022/07/23 02:46:42;;;;;;;1.90;1.63;;;16.00;78.20;;;;;;5077843;28;20059;-83
2022/07/23 02:49:08;;;;;;;1.70;1.60;;;16.10;78.20;;;;;;5095383;28;20051;-83
2022/07/23 02:51:33;;;;;;;3.47;1.70;;;16.00;78.10;;;;;;5076781;28;20028;-83
2022/07/23 02:53:59;;;;;;;2.35;1.55;;;16.00;78.10;;;;;;5076840;28;20026;-82
2022/07/23 02:56:24;;;;;;;3.40;1.80;;;16.00;78.10;;;;;;5077057;28;20111;-83
2022/07/23 02:58:50;;;;;;;2.03;1.83;;;16.00;78.70;;;;;;5095419;28;20032;-82
2022/07/23 03:01:16;;;;;;;4.28;2.50;;;16.00;78.10;;;;;;5077420;28;20024;-83
2022/07/23 03:03:41;;;;;;;2.75;1.52;;;16.00;78.10;;;;;;5077775;28;20368;-83
2022/07/23 03:06:07;;;;;;;4.95;1.80;;;16.00;78.00;;;;;;5077683;28;20024;-82
2022/07/23 03:08:32;;;;;;;1.60;1.50;;;16.00;78.00;;;;;;5095225;28;20462;-83
2022/07/23 03:10:58;;;;;;;1.98;1.50;;;16.00;78.10;;;;;;5077254;28;20031;-83
2022/07/23 03:13:24;;;;;;;2.88;1.52;;;16.00;78.10;;;;;;5077282;28;20032;-82
2022/07/23 03:15:49;;;;;;;1.60;1.50;;;16.00;78.10;;;;;;5077252;28;20043;-82
2022/07/23 03:18:15;;;;;;;1.40;1.30;;;16.00;78.00;;;;;;5077652;28;20062;-82
2022/07/23 03:20:40;;;;;;;3.28;1.63;;;16.00;78.00;;;;;;5076931;28;20067;-83
2022/07/23 03:23:06;;;;;;;1.60;1.45;;;16.00;78.00;;;;;;5076511;28;20119;-83
2022/07/23 03:25:32;;;;;;;2.38;1.42;;;16.00;78.00;;;;;;5077343;28;20026;-82
2022/07/23 03:27:57;;;;;;;2.83;1.50;;;16.00;78.00;;;;;;5076897;28;20115;-82
2022/07/23 03:30:23;;;;;;;2.25;1.45;;;15.90;77.90;;;;;;5094511;28;20027;-83
2022/07/23 03:32:48;;;;;;;2.35;1.40;;;16.00;78.00;;;;;;5076131;28;20024;-83
2022/07/23 03:35:14;;;;;;;2.75;1.33;;;15.90;77.90;;;;;;5095529;28;20521;-82
2022/07/23 03:37:40;;;;;;;1.83;1.50;;;15.90;77.90;;;;;;5077197;28;20060;-83
2022/07/23 03:40:06;;;;;;;2.20;1.50;;;15.90;77.90;;;;;;5076605;28;20458;-83
2022/07/23 03:42:32;;;;;;;1.88;1.30;;;15.90;77.90;;;;;;5076636;28;20028;-83
2022/07/23 03:44:57;;;;;;;3.67;1.42;;;15.90;77.90;;;;;;5077869;28;20495;-83
2022/07/23 03:47:23;;;;;;;1.67;1.30;;;15.90;77.90;;;;;;5077530;28;20020;-83
2022/07/23 03:49:49;;;;;;;2.15;1.25;;;15.90;78.00;;;;;;5076839;28;20112;-83
2022/07/23 03:52:15;;;;;;;1.33;1.20;;;15.90;78.00;;;;;;5093207;28;20487;-82
2022/07/23 03:54:41;;;;;;;2.00;1.40;;;15.80;77.90;;;;;;5076920;28;20039;-83
2022/07/23 03:57:06;;;;;;;1.42;1.20;;;15.90;77.90;;;;;;5077582;28;20127;-83
2022/07/23 03:59:32;;;;;;;2.17;1.30;;;15.80;77.90;;;;;;5095748;28;20036;-83
2022/07/23 04:01:57;;;;;;;3.25;1.35;;;15.90;77.90;;;;;;5080753;28;20031;-83
2022/07/23 04:04:23;;;;;;;2.20;1.40;;;15.80;77.80;;;;;;5081549;28;20021;-83
2022/07/23 04:06:49;;;;;;;1.98;1.33;;;15.90;77.90;;;;;;5080764;28;20043;-83
2022/07/23 04:09:14;;;;;;;1.42;1.10;;;15.90;77.90;;;;;;5080573;28;20063;-83
2022/07/23 04:11:40;;;;;;;1.63;1.30;;;15.80;77.80;;;;;;5081316;28;20492;-84
2022/07/23 04:14:06;;;;;;;1.63;1.30;;;15.80;77.90;;;;;;5080918;28;20028;-83
2022/07/23 04:16:31;;;;;;;2.70;1.20;;;15.80;77.90;;;;;;5080963;28;20036;-83
2022/07/23 04:18:57;;;;;;;1.88;1.30;;;15.90;77.90;;;;;;5080573;28;20020;-83
2022/07/23 04:21:24;;;;;;;2.05;1.50;;;15.90;77.90;;;;;;5080688;28;20577;-83
2022/07/23 04:23:50;;;;;;;4.75;1.50;;;15.90;77.90;;;;;;5099649;28;20071;-83
2022/07/23 04:26:15;;;;;;;1.92;1.05;;;15.90;77.80;;;;;;5081519;28;20074;-83
2022/07/23 04:28:41;;;;;;;3.47;1.45;;;16.00;77.80;;;;;;5099002;28;20479;-83
2022/07/23 04:31:07;;;;;;;1.50;1.40;;;15.90;77.80;;;;;;5098398;28;20039;-83
2022/07/23 04:33:33;;;;;;;3.58;1.70;;;15.90;77.80;;;;;;5098659;28;20095;-84
2022/07/23 04:35:59;;;;;;;4.05;1.20;;;15.90;77.90;;;;;;5098776;28;20056;-83
2022/07/23 04:38:24;;;;;;;1.85;1.20;;;15.90;77.90;;;;;;5099060;28;20068;-83
2022/07/23 04:40:50;;;;;;;2.45;1.30;;;15.90;77.90;;;;;;5080923;28;20031;-84
2022/07/23 04:43:16;;;;;;;2.55;1.45;;;16.00;77.90;;;;;;5097922;28;20066;-82
2022/07/23 04:45:41;;;;;;;1.38;1.10;;;16.00;77.80;;;;;;5079107;28;20173;-82
2022/07/23 04:48:07;;;;;;;2.50;1.58;;;16.00;77.70;;;;;;5079721;28;20055;-84
2022/07/23 04:50:32;;;;;;;2.13;1.23;;;16.00;77.70;;;;;;5097943;28;20024;-83
2022/07/23 04:52:59;;;;;;;3.40;1.30;;;16.10;77.70;;;;;;5097579;28;20029;-84
2022/07/23 04:55:24;;;;;;;2.35;0.90;;;16.10;77.60;;;;;;5079006;28;20024;-85
2022/07/23 04:57:51;;;;;;;2.15;1.02;;;16.10;77.50;;;;;;5097166;28;20028;-84
2022/07/23 05:00:17;;;;;;;2.08;1.13;;;16.20;77.50;;;;;;5079255;28;20389;-84
2022/07/23 05:02:42;;;;;;;1.75;1.17;;;16.20;77.50;;;;;;5079332;28;20024;-82
2022/07/23 05:05:08;;;;;;;1.52;1.10;;;16.20;77.40;;;;;;5097478;28;20031;-84
2022/07/23 05:07:34;;;;;;;2.08;1.27;;;16.20;77.30;;;;;;5078885;28;20024;-84
2022/07/23 05:09:59;;;;;;;2.35;1.20;;;16.30;77.30;;;;;;5097559;28;20096;-83
2022/07/23 05:12:25;;;;;;;1.10;0.90;;;16.30;77.30;;;;;;5078807;28;20024;-83
2022/07/23 05:14:52;;;;;;;1.58;1.05;;;16.30;77.30;;;;;;5079042;28;20028;-83
2022/07/23 05:17:18;;;;;;;3.58;1.20;;;16.30;77.20;;;;;;5097276;28;20043;-82
2022/07/23 05:19:43;;;;;;;2.42;1.08;;;16.30;77.30;;;;;;5079169;28;20024;-83
2022/07/23 05:22:09;;;;;;;1.85;1.50;;;16.40;77.30;;;;;;5096669;28;20028;-83
2022/07/23 05:24:34;;;;;;;0.95;0.90;;;16.40;77.20;;;;;;5075187;28;20044;-83
2022/07/23 05:27:00;;;;;;;2.35;1.02;;;16.40;77.20;;;;;;5075682;28;20029;-83
2022/07/23 05:29:25;;;;;;;1.33;1.00;;;16.40;77.10;;;;;;5075796;28;20024;-83
2022/07/23 05:31:51;;;;;;;1.00;0.90;;;16.50;77.00;;;;;;5077489;28;20128;-83
2022/07/23 05:34:17;;;;;;;4.00;1.10;;;16.50;77.00;;;;;;5077674;28;20017;-82
2022/07/23 05:36:42;;;;;;;2.10;1.15;;;16.60;76.90;;;;;;5076492;28;20017;-83
2022/07/23 05:39:08;;;;;;;2.78;1.10;;;16.60;76.80;;;;;;5075946;28;20059;-83
2022/07/23 05:41:33;;;;;;;2.75;0.98;;;16.60;76.70;;;;;;5075892;28;20027;-83
2022/07/23 05:43:59;;;;;;;1.10;0.80;;;16.70;76.60;;;;;;5076085;28;20039;-83
2022/07/23 05:46:25;;;;;;;1.58;0.80;;;16.70;76.50;;;;;;5077086;28;20025;-83
2022/07/23 05:48:50;;;;;;;1.45;0.90;;;16.70;76.30;;;;;;5075898;28;20035;-83
2022/07/23 05:51:25;;;;;;;2.05;0.82;;;16.80;76.40;;;;;;5076150;28;20032;-82
2022/07/23 05:53:51;;;;;;;1.85;0.88;;;16.80;76.30;;;;;;5078019;28;20099;-83
2022/07/23 05:56:17;;;;;;;2.38;0.90;;;16.80;76.20;;;;;;5092284;28;20094;-82
2022/07/23 05:58:44;;;;;;;1.33;0.90;;;16.80;76.10;;;;;;5074552;28;20399;-83
2022/07/23 06:01:11;;;;;;;4.63;1.08;;;16.90;76.10;;;;;;5075197;28;20544;-83
2022/07/23 06:03:37;;;;;;;1.27;0.85;;;16.90;76.00;;;;;;5075422;28;20062;-83
2022/07/23 06:06:03;;;;;;;1.80;0.93;;;17.00;76.00;;;;;;5075252;28;20535;-83
2022/07/23 06:08:28;;;;;;;0.85;0.60;;;17.00;75.80;;;;;;5075757;28;20033;-83
2022/07/23 06:10:54;;;;;;;1.90;0.77;;;17.00;75.70;;;;;;5075687;28;20456;-83
2022/07/23 06:13:19;;;;;;;2.10;0.80;;;17.00;75.50;;;;;;5074289;28;20029;-83
2022/07/23 06:15:45;;;;;;;1.80;1.27;;;17.00;75.40;;;;;;5076100;28;20073;-83
2022/07/23 06:18:11;;;;;;;1.05;0.90;;;17.10;75.30;;;;;;5076232;28;20111;-83
2022/07/23 06:20:36;;;;;;;3.55;1.00;;;17.10;75.20;;;;;;5076153;28;20517;-84
2022/07/23 06:23:02;;;;;;;2.28;0.95;;;17.10;75.10;;;;;;5081321;28;20048;-84
2022/07/23 06:25:28;;;;;;;1.55;0.80;;;17.10;75.00;;;;;;5096419;28;20029;-83
2022/07/23 06:27:54;;;;;;;2.10;0.98;;;17.20;75.00;;;;;;5078524;28;20039;-84
2022/07/23 06:30:19;;;;;;;2.35;1.00;;;17.20;74.90;;;;;;5078090;28;20107;-85
2022/07/23 06:32:46;;;;;;;1.35;1.02;;;17.30;74.80;;;;;;5078454;28;20028;-85
2022/07/23 06:35:12;;;;;;;1.58;1.25;;;17.30;74.80;;;;;;5094466;28;20032;-84
2022/07/23 06:37:38;;;;;;;0.90;0.90;;;17.30;74.70;;;;;;5077721;28;20068;-84
2022/07/23 06:40:04;;;;;;;1.60;1.20;;;17.40;74.70;;;;;;5077390;28;20024;-83
2022/07/23 06:42:30;;;;;;;2.08;1.20;;;17.40;74.50;;;;;;5094293;28;20073;-84
2022/07/23 06:44:55;;;;;;;2.13;1.00;;;17.50;74.50;;;;;;5077812;28;20028;-83
2022/07/23 06:47:21;;;;;;;2.85;1.30;;;17.50;74.30;;;;;;5078098;28;20028;-83
2022/07/23 06:49:47;;;;;;;2.00;1.10;;;17.50;74.20;;;;;;5078182;28;20051;-83
2022/07/23 06:52:12;;;;;;;1.27;0.98;;;17.60;74.10;;;;;;5078096;28;20024;-84
2022/07/23 06:54:38;;;;;;;3.30;1.10;;;17.60;74.00;;;;;;5095533;28;20024;-84
2022/07/23 06:57:04;;;;;;;2.67;1.13;;;17.70;74.00;;;;;;5098025;28;20031;-84
2022/07/23 06:59:29;;;;;;;2.75;1.10;;;17.70;73.80;;;;;;5077773;28;20447;-78
2022/07/23 07:01:55;;;;;;;1.42;1.10;;;17.80;73.80;;;;;;5075564;28;20075;-77
2022/07/23 07:04:21;;;;;;;2.00;1.23;;;17.80;73.60;;;;;;5093837;28;20487;-78
2022/07/23 07:06:46;;;;;;;1.88;1.27;;;17.90;73.60;;;;;;5075418;28;20024;-80
2022/07/23 07:09:13;;;;;;;2.05;1.33;;;17.90;73.40;;;;;;5075719;28;20040;-78
2022/07/23 07:11:38;;;;;;;1.23;1.00;;;18.00;73.40;;;;;;5075716;28;20054;-78
2022/07/23 07:14:04;;;;;;;2.00;1.38;;;18.00;73.20;;;;;;5075287;28;20024;-79
2022/07/23 07:16:30;;;;;;;2.28;1.10;;;18.00;73.00;;;;;;5094793;28;20104;-82
2022/07/23 07:18:55;;;;;;;2.20;1.40;;;18.10;72.90;;;;;;5094242;28;20036;-83
2022/07/23 07:21:21;;;;;;;2.53;1.30;;;18.10;72.80;;;;;;5094320;28;20395;-80
2022/07/23 07:23:46;;;;;;;2.13;1.17;;;18.10;72.50;;;;;;5094191;28;20047;-80
2022/07/23 07:26:12;;;;;;;3.90;1.10;;;18.10;72.10;;;;;;5094542;28;20031;-83
2022/07/23 07:28:38;;;;;;;1.42;1.20;;;18.20;71.90;;;;;;5095636;28;20092;-81
2022/07/23 07:31:03;;;;;;;3.00;1.35;;;18.20;71.80;;;;;;5076959;28;20027;-84
2022/07/23 07:33:29;;;;;;;1.45;1.10;;;18.20;71.70;;;;;;5095971;28;20028;-81
2022/07/23 07:35:55;;;;;;;1.23;1.10;;;18.20;71.70;;;;;;5094917;28;20028;-82
2022/07/23 07:38:20;;;;;;;1.77;1.13;;;18.30;71.60;;;;;;5077341;28;20043;-82
2022/07/23 07:40:46;;;;;;;3.03;1.23;;;18.30;71.40;;;;;;5078433;28;20024;-81
2022/07/23 07:43:11;;;;;;;2.22;1.10;;;18.40;71.40;;;;;;5096807;28;20039;-81
2022/07/23 07:45:37;;;;;;;2.45;1.40;;;18.40;71.30;;;;;;5076470;28;20042;-83
2022/07/23 07:48:03;;;;;;;1.63;1.10;;;18.40;71.20;;;;;;5093989;28;20028;-81
2022/07/23 07:50:29;;;;;;;2.40;1.10;;;18.50;71.10;;;;;;5076425;28;20089;-81
2022/07/23 07:52:54;;;;;;;4.65;1.27;;;18.60;70.90;;;;;;5094798;28;20108;-81
2022/07/23 07:55:20;;;;;;;2.47;1.10;;;18.60;70.70;;;;;;5094008;28;20032;-80
2022/07/23 07:57:45;;;;;;;3.63;1.40;;;18.60;70.50;;;;;;5076335;28;20016;-81
2022/07/23 08:00:11;;;;;;;1.80;1.23;;;18.70;70.30;;;;;;5094549;28;20376;-81
2022/07/23 08:02:45;;;;;;;1.45;1.10;;;18.70;70.50;;;;;;5076786;28;20050;-81
2022/07/23 08:05:11;;;;;;;2.30;1.17;;;18.80;69.80;;;;;;5077029;28;20028;-73
2022/07/23 08:07:38;;;;;;;2.13;1.40;;;18.80;69.80;;;;;;5093137;28;20111;-74
2022/07/23 08:10:05;;;;;;;1.55;1.30;;;18.90;69.80;;;;;;5091936;28;20021;-73
2022/07/23 08:12:45;;;;;;;1.52;1.10;;;19.00;69.60;;;;;;5091638;28;20024;-73
2022/07/23 08:15:15;;;;;;;2.47;1.15;;;19.00;69.50;;;;;;5092001;28;20074;-74
2022/07/23 08:17:42;;;;;;;1.13;0.95;;;19.10;69.30;;;;;;5074729;28;20027;-74
2022/07/23 08:20:10;;;;;;;2.30;1.30;;;19.20;69.20;;;;;;5092828;28;20031;-74
2022/07/23 08:22:48;;;;;;;1.42;1.08;;;19.20;69.00;;;;;;5092775;28;20027;-74
2022/07/23 08:25:26;;;;;;;1.38;1.02;;;19.20;69.50;;;;;;5074744;28;20494;-74
2022/07/23 08:27:52;;;;;;;2.70;0.93;;;19.30;68.80;;;;;;5074595;28;20046;-74
2022/07/23 08:30:18;;;;;;;1.27;0.93;;;19.40;68.70;;;;;;5092724;28;20024;-74
2022/07/23 08:32:54;;;;;;;1.70;1.10;;;19.40;68.40;;;;;;5092875;28;20062;-74
2022/07/23 08:35:26;;;;;;;2.10;1.20;;;19.50;68.00;;;;;;5091389;28;20039;-74
2022/07/23 08:37:52;;;;;;;1.80;1.15;;;19.50;67.80;;;;;;5091534;28;20407;-73
2022/07/23 08:40:18;;;;;;;1.98;1.35;;;19.60;67.80;;;;;;5093119;28;20035;-74
2022/07/23 08:42:47;;;;;;;2.08;1.20;;;19.60;67.80;;;;;;5091358;28;20080;-74
2022/07/23 08:45:15;;;;;;;1.83;1.10;;;19.60;67.70;;;;;;5091406;28;20032;-74
2022/07/23 08:47:41;;;;;;;2.65;1.25;;;19.70;67.60;;;;;;5095226;28;20481;-73
2022/07/23 08:50:07;;;;;;;0.93;0.93;;;19.70;67.10;;;;;;5096287;28;20032;-73
2022/07/23 08:52:33;;;;;;;2.65;1.10;;;19.80;67.00;;;;;;5094274;28;20490;-74
2022/07/23 08:54:59;;;;;;;2.47;1.23;;;19.80;66.70;;;;;;5078108;28;20027;-74
2022/07/23 08:57:25;;;;;;;1.90;1.10;;;19.80;66.40;;;;;;5095716;28;20052;-73
2022/07/23 08:59:51;;;;;;;1.40;1.10;;;19.90;66.20;;;;;;5077637;28;20070;-73
2022/07/23 09:02:17;;;;;;;1.38;0.93;;;19.90;65.70;;;;;;5077465;28;20460;-74
2022/07/23 09:04:42;;;;;;;1.67;0.98;;;19.90;65.60;;;;;;5096551;28;20107;-73
2022/07/23 09:07:08;;;;;;;1.17;1.00;;;19.90;65.40;;;;;;5095997;28;20399;-74
2022/07/23 09:09:34;;;;;;;2.20;0.95;;;20.00;65.50;;;;;;5095927;28;20028;-74
2022/07/23 09:12:17;;;;;;;1.33;0.88;;;20.10;65.40;;;;;;5096700;28;20032;-74
2022/07/23 09:14:47;;;;;;;1.48;1.02;;;20.20;65.30;;;;;;5095815;28;20032;-74
2022/07/23 09:17:15;;;;;;;1.42;1.10;;;20.20;65.30;;;;;;5095882;28;20035;-74
2022/07/23 09:19:42;;;;;;;1.30;1.20;;;20.30;65.20;;;;;;5095747;28;20038;-73
2022/07/23 09:22:23;;;;;;;2.90;1.27;;;20.40;65.20;;;;;;5077726;28;20144;-75
2022/07/23 09:25:15;;;;;;;3.60;1.27;;;20.60;65.00;;;;;;5095713;28;20106;-75
2022/07/23 09:28:03;;;;;;;2.13;1.20;;;20.60;64.50;;;;;;5095999;28;20047;-75
2022/07/23 09:30:31;;;;;;;2.40;1.17;;;20.70;64.30;;;;;;5094366;28;20025;-76
2022/07/23 09:33:11;;;;;;;1.77;1.08;;;20.70;64.30;;;;;;5095897;28;20024;-76
2022/07/23 09:35:50;;;;;;;7.28;1.45;;;20.60;64.30;;;;;;5095533;28;20051;-77
2022/07/23 09:38:18;;;;;;;2.55;1.20;;;20.70;64.40;;;;;;5094055;28;20518;-77
2022/07/23 09:40:45;;;;;;;1.38;1.00;;;20.70;64.30;;;;;;5095592;28;20016;-77
2022/07/23 09:43:11;;;;;;;2.97;1.30;;;20.70;64.10;;;;;;5095034;28;20440;-77
2022/07/23 09:45:39;;;;;;;2.00;1.10;;;20.70;63.70;;;;;;5077555;28;20479;-77
2022/07/23 09:48:12;;;;;;;1.20;1.10;;;20.70;63.40;;;;;;5077673;28;20034;-77
2022/07/23 09:50:40;;;;;;;1.95;1.23;;;20.80;63.20;;;;;;5093936;28;20054;-77
2022/07/23 09:53:06;;;;;;;1.10;1.00;;;20.80;63.10;;;;;;5095722;28;20028;-77
2022/07/23 09:55:39;;;;;;;1.73;1.02;;;20.90;63.00;;;;;;5095348;28;20185;-77
2022/07/23 09:58:09;;;;;;;1.40;1.08;;;20.90;62.90;;;;;;5094290;28;20055;-78
2022/07/23 10:00:35;;;;;;;2.47;1.33;;;21.00;62.90;;;;;;5077110;28;20020;-77
2022/07/23 10:03:02;;;;;;;1.95;1.30;;;21.10;62.90;;;;;;5095266;28;20020;-77
2022/07/23 10:05:30;;;;;;;2.35;1.10;;;21.10;62.70;;;;;;5100962;28;20017;-82
2022/07/23 10:07:56;;;;;;;1.17;1.08;;;21.20;62.60;;;;;;5099829;28;20391;-83
2022/07/23 10:10:24;;;;;;;1.38;1.10;;;21.20;62.50;;;;;;5099611;28;20074;-81
2022/07/23 10:15:16;;;;;;;2.30;1.10;;;21.30;61.60;;;;;;5099235;28;20032;-80
2022/07/23 10:17:42;;;;;;;2.15;1.30;;;21.40;61.40;;;;;;5097769;28;20016;-82
2022/07/23 10:20:08;;;;;;;1.10;1.00;;;21.50;61.70;;;;;;5098768;28;20070;-83
2022/07/23 10:22:37;;;;;;;2.15;1.20;;;21.50;61.10;;;;;;5080892;28;20024;-83
2022/07/23 10:25:15;;;;;;;2.55;1.20;;;21.60;60.90;;;;;;5100696;28;20407;-83
2022/07/23 10:27:42;;;;;;;1.70;1.30;;;21.60;60.50;;;;;;5083710;28;20057;-83
2022/07/23 10:30:15;;;;;;;1.40;1.10;;;21.70;60.70;;;;;;5103320;28;20059;-82
2022/07/23 10:33:00;;;;;;;1.75;1.40;;;21.80;60.50;;;;;;5102991;28;20024;-84
2022/07/23 10:35:48;;;;;;;1.50;1.40;;;21.90;60.40;;;;;;5086081;28;20040;-83
2022/07/23 10:38:19;;;;;;;1.65;1.40;;;21.90;60.00;;;;;;5102607;28;20036;-82
2022/07/23 10:41:04;;;;;;;1.52;1.17;;;21.90;59.70;;;;;;5101311;28;20043;-81
2022/07/23 10:43:31;;;;;;;1.58;1.23;;;22.00;59.50;;;;;;5098776;28;20443;-82
2022/07/23 10:49:31;;;;;;;2.92;1.10;;;22.20;59.30;;;;;;5067651;28;20395;-82
2022/07/23 10:52:20;;;;;;;2.42;1.30;;;22.30;59.30;;;;;;5098463;28;20024;-81
2022/07/23 10:54:55;;;;;;;1.50;1.30;;;22.40;59.00;;;;;;5081659;28;20031;-82
2022/07/23 10:57:26;;;;;;;1.30;1.20;;;22.50;58.60;;;;;;5080963;28;20036;-84
2022/07/23 11:00:11;;;;;;;1.55;1.40;;;22.60;58.30;;;;;;5098467;28;20634;-82
2022/07/23 11:02:39;;;;;;;1.20;1.10;;;22.70;58.10;;;;;;5099980;28;20055;-82
2022/07/23 11:05:10;;;;;;;2.60;1.20;;;22.80;58.10;;;;;;5099187;28;20035;-81
2022/07/23 11:07:56;;;;;;;2.33;1.25;;;22.90;57.70;;;;;;5100062;28;20093;-82
2022/07/23 11:10:36;;;;;;;1.50;1.10;;;22.90;57.40;;;;;;5100752;28;20036;-82
2022/07/23 11:13:35;;;;;;;3.03;1.35;;;23.00;57.00;;;;;;5081719;28;20028;-82
2022/07/23 11:16:01;;;;;;;1.55;1.15;;;23.00;56.90;;;;;;5082860;28;20048;-82
2022/07/23 11:18:42;;;;;;;2.13;1.30;;;23.10;57.00;;;;;;5101146;28;20024;-81
2022/07/23 11:21:36;;;;;;;1.40;1.15;;;23.20;56.70;;;;;;5082300;28;20434;-82
2022/07/23 11:24:06;;;;;;;1.25;1.00;;;23.30;56.20;;;;;;5098211;28;20055;-81
2022/07/23 11:26:41;;;;;;;1.38;1.10;;;23.40;56.20;;;;;;5081943;28;20024;-81
2022/07/23 11:29:33;;;;;;;2.47;1.50;;;23.40;55.70;;;;;;5101798;28;20062;-83
2022/07/23 11:31:59;;;;;;;2.55;1.10;;;23.50;55.40;;;;;;5096239;28;20047;-82
2022/07/23 11:34:35;;;;;;;2.65;1.20;;;23.50;55.40;;;;;;5082866;28;20119;-81
2022/07/23 11:37:03;;;;;;;3.00;1.40;;;23.60;55.00;;;;;;5101232;28;20059;-81
2022/07/23 11:39:31;;;;;;;1.60;1.48;;;23.60;54.80;;;;;;5099465;28;20066;-81
2022/07/23 11:41:57;;;;;;;1.35;0.98;;;23.70;54.70;;;;;;5101785;28;20101;-82
2022/07/23 11:44:30;;;;;;;1.50;1.30;;;23.70;54.80;;;;;;5100068;28;20115;-82
2022/07/23 11:46:57;;;;;;;;;;;23.80;54.70;;;;;;5102078;28;20043;-82
2022/07/23 11:49:23;;;;;;;1.70;1.05;;;23.90;54.90;;;;;;5101867;28;19918;-83
2022/07/23 11:52:13;;;;;;;1.33;1.23;;;23.90;54.90;;;;;;5082333;28;20063;-82
2022/07/23 11:54:54;;;;;;;1.73;1.20;;;24.10;54.50;;;;;;5100049;28;20051;-83
2022/07/23 11:57:23;;;;;;;1.17;1.13;;;24.20;54.10;;;;;;5100064;28;20028;-81
2022/07/23 11:59:53;;;;;;;1.40;1.30;;;24.30;53.90;;;;;;5099735;28;20024;-82
2022/07/23 12:02:20;;;;;;;1.88;1.10;;;24.30;53.70;;;;;;5099586;28;20020;-81
2022/07/23 12:04:49;;;;;;;1.48;1.27;;;24.40;53.60;;;;;;5100767;28;20028;-82
2022/07/23 12:07:44;;;;;;;1.40;1.30;;;24.50;53.30;;;;;;5099905;28;20020;-82
2022/07/23 12:10:20;;;;;;;1.95;1.30;;;24.50;53.00;;;;;;5084405;28;20062;-82
2022/07/23 12:12:55;;;;;;;2.33;1.27;;;24.50;53.10;;;;;;5099887;28;20479;-83
2022/07/23 12:15:25;;;;;;;1.40;1.30;;;24.50;53.10;;;;;;5099486;28;20025;-81
2022/07/23 12:17:52;;;;;;;1.33;1.23;;;24.60;53.10;;;;;;5100458;28;20032;-82
2022/07/23 12:20:24;;;;;;;1.65;1.30;;;24.70;52.70;;;;;;5101908;28;20028;-80
2022/07/23 12:22:55;;;;;;;4.38;1.40;;;24.80;52.70;;;;;;5104454;28;20101;-82
2022/07/23 12:25:23;;;;;;;3.08;1.40;;;24.90;52.40;;;;;;5106708;28;20054;-81
2022/07/23 12:28:02;;;;;;;1.33;1.20;;;25.00;52.40;;;;;;5110216;28;20446;-81
2022/07/23 12:30:36;;;;;;;1.35;1.23;;;25.10;52.30;;;;;;5092496;28;20036;-81
2022/07/23 12:33:04;;;;;;;2.13;1.40;;;25.20;52.20;;;;;;5111398;28;20024;-82
2022/07/23 12:35:33;;;;;;;1.55;1.40;;;25.20;52.10;;;;;;5090915;28;20027;-83
2022/07/23 12:38:04;;;;;;;1.85;1.40;;;25.30;52.00;;;;;;5110571;28;20499;-82
2022/07/23 12:40:32;;;;;;;1.95;1.40;;;25.50;51.70;;;;;;5110605;28;20099;-83
2022/07/23 12:43:07;;;;;;;2.40;1.30;;;25.50;51.40;;;;;;5092300;28;20031;-82
2022/07/23 12:45:53;;;;;;;1.40;1.30;;;25.60;51.30;;;;;;5106480;28;20040;-82
2022/07/23 12:48:27;;;;;;;1.33;1.23;;;25.70;51.00;;;;;;5092150;28;20039;-83
2022/07/23 12:50:54;;;;;;;1.30;1.20;;;25.80;51.00;;;;;;5090859;28;20391;-83
2022/07/23 12:56:46;;;;;;;2.00;1.30;;;26.10;50.50;;;;;;5109959;28;20140;-82
2022/07/23 12:59:16;;;;;;;1.30;1.20;;;26.20;50.70;;;;;;5087840;28;20492;-82
2022/07/23 13:01:48;;;;;;;1.50;1.40;;;26.30;50.70;;;;;;5108186;28;20028;-82